< < Back
Terminal Aerodrome Forecast


Current Version              Previous Versions:   1  2  3  4  5  6  7  8  9  

Terminal Aerodrome Forecast

244
FTUS42 KGSP 200500
TAFGSP
TAF
KGSP 200530Z 2006/2106 00000KT P6SM BKN250
     FM201500 20006KT P6SM FEW210=



Latest METAR

381
SAUS70 KWBC 201800 RRM
MTRGSP
METAR KGSP 201753Z 22012KT 10SM FEW043 20/10 A3003 RMK AO2 SLP164
T02000100 10206 20067 58029


USA.gov is the U.S. government's official web portal to all federal, state and local government web resources and services.